createdAt,value
2022-09-23T00:02:36.642Z,101720.53
2022-09-23T00:06:39.129Z,101717.28
2022-09-23T00:10:40.710Z,101717.66
2022-09-23T00:14:42.048Z,101707.81
2022-09-23T00:18:44.157Z,101701.13
2022-09-23T00:22:46.393Z,101705.06
2022-09-23T00:26:47.749Z,101697.56
2022-09-23T00:30:49.143Z,101693.78
2022-09-23T00:34:51.429Z,101694.16
2022-09-23T00:38:54.188Z,101686.84
2022-09-23T00:42:55.569Z,101678.19
2022-09-23T00:46:57.173Z,101675.06
2022-09-23T00:50:58.580Z,101689.91
2022-09-23T00:55:02.766Z,101680.97
2022-09-23T00:59:06.534Z,101680.34
2022-09-23T01:03:08.292Z,101683.50
2022-09-23T01:07:09.717Z,101667.91
2022-09-23T01:11:34.683Z,101669.13
2022-09-23T01:15:45.991Z,101662.19
2022-09-23T01:20:18.019Z,101667.69
2022-09-23T01:25:01.594Z,101660.56
2022-09-23T01:29:21.810Z,101650.88
2022-09-23T01:33:38.214Z,101653.53
2022-09-23T01:37:52.442Z,101652.59
2022-09-23T01:42:02.694Z,101655.06
2022-09-23T01:46:11.157Z,101650.38
2022-09-23T01:50:36.572Z,101645.78
2022-09-23T01:54:43.232Z,101640.56
2022-09-23T01:58:54.973Z,101639.75
2022-09-23T02:03:01.427Z,101644.88
2022-09-23T02:07:10.074Z,101630.47
2022-09-23T02:11:16.241Z,101632.22
2022-09-23T02:15:35.165Z,101617.22
2022-09-23T02:19:47.816Z,101623.13
2022-09-23T02:23:53.346Z,101621.22
2022-09-23T02:28:14.810Z,101603.28
2022-09-23T02:32:48.658Z,101610.69
2022-09-23T02:37:11.625Z,101606.84
2022-09-23T02:41:23.008Z,101600.72
2022-09-23T02:45:25.007Z,101602.66
2022-09-23T02:49:29.714Z,101595.84
2022-09-23T02:53:34.931Z,101584.13
2022-09-23T02:57:36.357Z,101581.16
2022-09-23T03:01:47.634Z,101578.44
2022-09-23T03:05:56.014Z,101579.34
2022-09-23T03:10:09.650Z,101576.09
2022-09-23T03:14:27.998Z,101571.28
2022-09-23T03:18:36.576Z,101576.59
2022-09-23T03:22:47.136Z,101561.50
2022-09-23T03:26:49.862Z,101560.69
2022-09-23T03:30:53.011Z,101558.84
2022-09-23T03:34:58.399Z,101559.97
2022-09-23T03:39:08.466Z,101562.53
2022-09-23T03:43:13.271Z,101558.03
2022-09-23T03:47:16.655Z,101558.38
2022-09-23T03:51:22.536Z,101550.00
2022-09-23T03:55:24.040Z,101540.19
2022-09-23T03:59:26.593Z,101546.84
2022-09-23T04:03:29.258Z,101547.44
2022-09-23T04:07:30.753Z,101540.47
2022-09-23T04:11:32.179Z,101539.94
2022-09-23T04:15:33.589Z,101530.75
2022-09-23T04:19:35.234Z,101535.22
2022-09-23T04:23:36.827Z,101529.72
2022-09-23T04:27:38.853Z,101529.81
2022-09-23T04:31:40.526Z,101529.25
2022-09-23T04:35:43.509Z,101522.88
2022-09-23T04:39:45.001Z,101523.47
2022-09-23T04:43:46.815Z,101515.44
2022-09-23T04:47:48.325Z,101516.84
2022-09-23T04:51:49.784Z,101521.75
2022-09-23T04:55:52.266Z,101522.47
2022-09-23T04:59:56.942Z,101517.03
2022-09-23T05:04:02.572Z,101519.91
2022-09-23T05:08:04.083Z,101520.13
2022-09-23T05:12:05.931Z,101511.03
2022-09-23T05:16:10.888Z,101515.00
2022-09-23T05:20:13.164Z,101515.34
2022-09-23T05:24:14.887Z,101529.88
2022-09-23T05:28:20.221Z,101524.41
2022-09-23T05:32:21.975Z,101520.34
2022-09-23T05:36:24.405Z,101520.03
2022-09-23T05:40:25.975Z,101516.25
2022-09-23T05:44:27.541Z,101517.78
2022-09-23T05:48:33.171Z,101515.34
2022-09-23T05:52:34.849Z,101516.59
2022-09-23T05:56:37.349Z,101512.94
2022-09-23T06:00:40.914Z,101515.03
2022-09-23T06:04:43.031Z,101515.50
2022-09-23T06:08:45.683Z,101512.50
2022-09-23T06:12:47.150Z,101513.56
2022-09-23T06:16:48.667Z,101511.53
2022-09-23T06:20:50.108Z,101519.63
2022-09-23T06:24:51.555Z,101514.47
2022-09-23T06:28:53.141Z,101513.75
2022-09-23T06:32:57.102Z,101514.38
2022-09-23T06:37:01.976Z,101523.84
2022-09-23T06:41:12.005Z,101523.41
2022-09-23T06:45:14.987Z,101521.66
2022-09-23T06:49:16.561Z,101517.63
2022-09-23T06:53:18.176Z,101518.59
2022-09-23T06:57:19.773Z,101524.16
2022-09-23T07:01:22.337Z,101527.22
2022-09-23T07:05:24.120Z,101525.22
2022-09-23T07:09:25.971Z,101529.63
2022-09-23T07:13:29.401Z,101528.25
2022-09-23T07:17:31.105Z,101534.97
2022-09-23T07:21:32.541Z,101532.50
2022-09-23T07:25:34.207Z,101538.75
2022-09-23T07:29:46.595Z,101542.31
2022-09-23T07:33:49.765Z,101543.41
2022-09-23T07:37:51.231Z,101541.22
2022-09-23T07:41:52.698Z,101534.09
2022-09-23T07:45:54.525Z,101540.22
2022-09-23T07:49:55.953Z,101524.41
2022-09-23T07:53:57.403Z,101544.06
2022-09-23T07:57:58.826Z,101533.13
2022-09-23T08:02:00.497Z,101530.88
2022-09-23T08:06:13.078Z,101536.22
2022-09-23T08:10:14.662Z,101526.78
2022-09-23T08:14:17.917Z,101529.09
2022-09-23T08:18:19.484Z,101524.75
2022-09-23T08:22:20.969Z,101531.66
2022-09-23T08:26:22.670Z,101516.56
2022-09-23T08:30:24.161Z,101525.16
2022-09-23T08:34:27.820Z,101522.84
2022-09-23T08:38:29.968Z,101518.97
2022-09-23T08:42:33.686Z,101518.81
2022-09-23T08:46:41.473Z,101509.38
2022-09-23T08:50:54.718Z,101513.47
2022-09-23T08:54:56.464Z,101497.72
2022-09-23T08:59:14.801Z,101501.47
2022-09-23T09:03:34.117Z,101499.88
2022-09-23T09:07:40.072Z,101504.28
2022-09-23T09:11:48.531Z,101500.84
2022-09-23T09:16:05.715Z,101502.53
2022-09-23T09:20:19.012Z,101500.06
2022-09-23T09:24:34.059Z,101499.34
2022-09-23T09:28:41.687Z,101504.31
2022-09-23T09:33:00.700Z,101491.41
2022-09-23T09:37:08.928Z,101486.06
2022-09-23T09:41:18.240Z,101481.88
2022-09-23T09:45:46.589Z,101473.94
2022-09-23T09:50:01.961Z,101472.94
2022-09-23T09:54:22.110Z,101463.44
2022-09-23T09:58:25.578Z,101457.25
2022-09-23T10:02:30.631Z,101452.66
2022-09-23T10:06:34.733Z,101454.25
2022-09-23T10:10:36.150Z,101442.00
2022-09-23T10:14:37.727Z,101447.00
2022-09-23T10:18:49.971Z,101446.22
2022-09-23T10:22:51.529Z,101439.50
2022-09-23T10:27:01.591Z,101441.38
2022-09-23T10:31:15.810Z,101438.38
2022-09-23T10:35:21.959Z,101442.94
2022-09-23T10:39:43.011Z,101437.94
2022-09-23T10:44:09.844Z,101428.41
2022-09-23T10:48:38.419Z,101429.06
2022-09-23T10:53:05.044Z,101431.72
2022-09-23T10:57:41.111Z,101423.28
2022-09-23T11:01:48.965Z,101427.47
2022-09-23T11:06:22.885Z,101422.75
2022-09-23T11:10:53.007Z,101416.22
2022-09-23T11:14:54.353Z,101409.59
2022-09-23T11:19:02.122Z,101405.50
2022-09-23T11:23:34.286Z,101394.72
2022-09-23T11:28:13.030Z,101394.72
2022-09-23T11:32:32.271Z,101383.47
2022-09-23T11:36:46.995Z,101369.91
2022-09-23T11:40:54.755Z,101369.44
2022-09-23T11:45:02.158Z,101362.66
2022-09-23T11:49:09.394Z,101355.84
2022-09-23T11:53:42.582Z,101353.47
2022-09-23T11:57:49.483Z,101361.09
2022-09-23T12:02:20.368Z,101350.66
2022-09-23T12:06:27.955Z,101338.16
2022-09-23T12:10:54.719Z,101337.59
2022-09-23T12:15:34.389Z,101335.19
2022-09-23T12:19:57.741Z,101330.91
2022-09-23T12:24:32.013Z,101322.63
2022-09-23T12:28:40.863Z,101315.66
2022-09-23T12:32:43.209Z,101311.78
2022-09-23T12:36:45.738Z,101307.44
2022-09-23T12:40:48.012Z,101298.44
2022-09-23T12:44:50.559Z,101312.94
2022-09-23T12:48:57.979Z,101296.84
2022-09-23T12:53:34.350Z,101296.28
2022-09-23T12:57:35.722Z,101287.31
2022-09-23T13:01:38.495Z,101288.72
2022-09-23T13:06:10.314Z,101283.78
2022-09-23T13:10:22.733Z,101275.50
2022-09-23T13:14:27.584Z,101266.19
2022-09-23T13:18:50.049Z,101266.97
2022-09-23T13:22:54.416Z,101261.06
2022-09-23T13:27:06.343Z,101251.56
2022-09-23T13:31:14.938Z,101252.59
2022-09-23T13:35:24.506Z,101244.06
2022-09-23T13:39:27.763Z,101235.00
2022-09-23T13:43:55.308Z,101228.59
2022-09-23T13:48:13.530Z,101221.50
2022-09-23T13:52:27.482Z,101210.91
2022-09-23T13:56:32.249Z,101206.97
2022-09-23T14:00:36.779Z,101211.66
2022-09-23T14:04:38.667Z,101206.50
2022-09-23T14:08:43.941Z,101206.81
2022-09-23T14:12:47.443Z,101199.25
2022-09-23T14:16:51.316Z,101191.78
2022-09-23T14:20:52.784Z,101184.44
2022-09-23T14:24:55.708Z,101187.13
2022-09-23T14:28:57.194Z,101185.75
2022-09-23T14:32:59.379Z,101177.50
2022-09-23T14:37:33.189Z,101169.59
2022-09-23T14:41:41.267Z,101170.94
2022-09-23T14:45:47.327Z,101171.53
2022-09-23T14:50:10.464Z,101172.97
2022-09-23T14:54:30.368Z,101158.19
2022-09-23T14:58:46.961Z,101159.19
2022-09-23T15:03:00.082Z,101157.00
2022-09-23T15:07:08.987Z,101151.66
2022-09-23T15:11:11.095Z,101154.50
2022-09-23T15:15:14.830Z,101145.28
2022-09-23T15:19:19.885Z,101146.03
2022-09-23T15:23:41.552Z,101146.88
2022-09-23T15:27:55.759Z,101143.28
2022-09-23T15:31:57.892Z,101134.06
2022-09-23T15:35:59.369Z,101134.09
2022-09-23T15:40:00.934Z,101134.09
2022-09-23T15:44:13.053Z,101136.09
2022-09-23T15:48:17.869Z,101136.88
2022-09-23T15:52:22.676Z,101133.25
2022-09-23T15:56:26.905Z,101129.72
2022-09-23T16:00:28.561Z,101123.72
2022-09-23T16:04:31.377Z,101133.66
2022-09-23T16:08:33.272Z,101126.69
2022-09-23T16:12:34.969Z,101130.31
2022-09-23T16:16:36.487Z,101130.72
2022-09-23T16:20:42.233Z,101125.09
2022-09-23T16:24:43.973Z,101118.91
2022-09-23T16:28:46.996Z,101117.97
2022-09-23T16:32:48.657Z,101116.72
2022-09-23T16:36:50.159Z,101112.28
2022-09-23T16:40:51.776Z,101114.53
2022-09-23T16:44:53.264Z,101112.78
2022-09-23T16:48:56.247Z,101110.94
2022-09-23T16:52:57.880Z,101105.19
2022-09-23T16:56:59.413Z,101109.34
2022-09-23T17:01:19.466Z,101104.53
2022-09-23T17:05:20.899Z,101105.38
2022-09-23T17:09:24.863Z,101097.09
2022-09-23T17:13:29.476Z,101093.44
2022-09-23T17:17:36.971Z,101093.56
2022-09-23T17:21:38.874Z,101092.38
2022-09-23T17:25:40.253Z,101084.84
2022-09-23T17:29:41.648Z,101089.59
2022-09-23T17:33:43.480Z,101091.94
2022-09-23T17:37:46.700Z,101091.78
2022-09-23T17:41:48.156Z,101088.50
2022-09-23T17:45:49.870Z,101090.97
2022-09-23T17:49:51.918Z,101084.25
2022-09-23T17:53:53.365Z,101087.84
2022-09-23T17:57:54.880Z,101089.81
2022-09-23T18:01:56.475Z,101100.63
2022-09-23T18:06:17.092Z,101087.84
2022-09-23T18:10:18.525Z,101093.47
2022-09-23T18:14:22.130Z,101100.16
2022-09-23T18:18:23.525Z,101090.69
2022-09-23T18:22:24.920Z,101091.38
2022-09-23T18:26:30.187Z,101088.72
2022-09-23T18:30:32.171Z,101095.16
2022-09-23T18:34:33.630Z,101091.22
2022-09-23T18:38:35.559Z,101088.28
2022-09-23T18:42:40.317Z,101082.03
2022-09-23T18:46:45.536Z,101081.59
2022-09-23T18:50:48.834Z,101080.22
2022-09-23T18:54:54.962Z,101079.84
2022-09-23T18:58:56.653Z,101081.50
2022-09-23T19:02:58.558Z,101082.25
2022-09-23T19:07:00.260Z,101087.16
2022-09-23T19:11:03.267Z,101081.75
2022-09-23T19:15:04.961Z,101082.81
2022-09-23T19:19:07.114Z,101084.59
2022-09-23T19:23:08.495Z,101084.59
2022-09-23T19:27:09.870Z,101077.34
2022-09-23T19:31:13.995Z,101073.66
2022-09-23T19:35:16.050Z,101067.91
2022-09-23T19:39:23.286Z,101067.25
2022-09-23T19:43:25.121Z,101075.72
2022-09-23T19:47:26.503Z,101065.78
2022-09-23T19:51:28.289Z,101063.06
2022-09-23T19:55:30.228Z,101065.06
2022-09-23T19:59:31.673Z,101061.94
2022-09-23T20:03:33.409Z,101055.47
2022-09-23T20:07:34.867Z,101057.16
2022-09-23T20:11:36.371Z,101062.97
2022-09-23T20:15:37.946Z,101063.88
2022-09-23T20:19:40.519Z,101057.16
2022-09-23T20:23:42.504Z,101054.31
2022-09-23T20:27:49.482Z,101047.88
2022-09-23T20:31:51.152Z,101047.59
2022-09-23T20:35:53.619Z,101042.94
2022-09-23T20:39:55.112Z,101033.19
2022-09-23T20:44:00.602Z,101040.91
2022-09-23T20:48:03.246Z,101035.78
2022-09-23T20:52:04.707Z,101040.00
2022-09-23T20:56:06.592Z,101038.13
2022-09-23T21:00:08.865Z,101041.78
2022-09-23T21:04:10.649Z,101037.66
2022-09-23T21:08:12.511Z,101034.72
2022-09-23T21:12:13.879Z,101028.88
2022-09-23T21:16:17.127Z,101027.66
2022-09-23T21:20:18.659Z,101018.31
2022-09-23T21:28:43.976Z,101014.84
2022-09-23T21:32:45.356Z,101010.88
2022-09-23T21:36:48.085Z,101012.41
2022-09-23T21:40:56.731Z,101009.28
2022-09-23T21:44:58.188Z,101007.31
2022-09-23T21:49:01.971Z,101007.03
2022-09-23T21:53:03.385Z,100999.50
2022-09-23T21:57:04.830Z,100997.72
2022-09-23T22:01:11.945Z,101002.38
2022-09-23T22:05:13.462Z,101000.97
2022-09-23T22:09:20.283Z,101001.13
2022-09-23T22:13:21.906Z,101002.81
2022-09-23T22:17:23.670Z,101004.34
2022-09-23T22:21:26.912Z,100998.25
2022-09-23T22:25:28.861Z,101002.91
2022-09-23T22:29:48.847Z,100994.50
2022-09-23T22:33:50.618Z,100987.97
2022-09-23T22:37:52.023Z,100983.31
2022-09-23T22:41:53.653Z,100983.41
2022-09-23T22:45:55.038Z,100976.31
2022-09-23T22:49:56.511Z,100980.00
2022-09-23T22:53:58.053Z,100974.75
2022-09-23T22:58:10.576Z,100968.44
2022-09-23T23:02:23.938Z,100971.69
2022-09-23T23:06:25.352Z,100971.75
2022-09-23T23:10:27.223Z,100977.22
2022-09-23T23:14:31.270Z,100967.66
2022-09-23T23:18:35.290Z,100960.84
2022-09-23T23:22:36.677Z,100964.06
2022-09-23T23:26:38.077Z,100959.03
2022-09-23T23:30:39.461Z,100955.03
2022-09-23T23:34:40.826Z,100955.97
2022-09-23T23:38:44.354Z,100956.38
2022-09-23T23:42:45.765Z,100951.31
2022-09-23T23:46:48.107Z,100945.59
2022-09-23T23:50:54.705Z,100946.38
2022-09-23T23:54:56.177Z,100949.28
2022-09-23T23:58:59.590Z,100949.53
